createdAt,value
2023-05-09T00:04:15.869Z,6.80
2023-05-09T00:09:20.255Z,5.72
2023-05-09T00:14:24.735Z,7.03
2023-05-09T00:19:27.400Z,6.82
2023-05-09T00:24:31.611Z,6.63
2023-05-09T00:29:34.209Z,6.80
2023-05-09T00:34:37.418Z,7.32
2023-05-09T00:39:41.386Z,7.77
2023-05-09T00:49:46.225Z,6.72
2023-05-09T00:54:50.452Z,6.68
2023-05-09T00:59:52.924Z,7.25
2023-05-09T01:04:56.026Z,6.75
2023-05-09T01:10:05.210Z,6.33
2023-05-09T01:15:12.827Z,5.82
2023-05-09T01:20:19.301Z,4.90
2023-05-09T01:25:33.230Z,6.38
2023-05-09T01:30:39.024Z,5.75
2023-05-09T01:35:44.091Z,6.35
2023-05-09T01:40:49.692Z,5.80
2023-05-09T01:45:54.340Z,5.32
2023-05-09T01:50:58.452Z,5.82
2023-05-09T02:01:06.289Z,5.75
2023-05-09T02:06:09.749Z,6.38
2023-05-09T02:11:12.287Z,6.47
2023-05-09T02:16:16.645Z,6.05
2023-05-09T02:21:19.629Z,6.05
2023-05-09T02:26:22.605Z,4.78
2023-05-09T02:31:28.983Z,6.75
2023-05-09T02:36:33.046Z,6.20
2023-05-09T02:46:39.804Z,5.38
2023-05-09T02:51:42.449Z,5.57
2023-05-09T02:56:44.975Z,6.40
2023-05-09T03:01:49.324Z,6.88
2023-05-09T03:06:52.533Z,6.30
2023-05-09T03:11:56.123Z,6.37
2023-05-09T03:16:59.975Z,7.40
2023-05-09T03:22:02.986Z,6.50
2023-05-09T03:27:05.572Z,6.15
2023-05-09T03:32:09.837Z,6.78
2023-05-09T03:37:12.468Z,6.30
2023-05-09T03:42:16.115Z,7.00
2023-05-09T03:47:20.582Z,6.47
2023-05-09T03:52:23.096Z,6.55
2023-05-09T03:57:25.965Z,6.32
2023-05-09T04:02:30.708Z,6.65
2023-05-09T04:07:33.331Z,5.63
2023-05-09T04:12:36.116Z,6.90
2023-05-09T04:17:41.158Z,7.25
2023-05-09T04:22:44.876Z,6.55
2023-05-09T04:27:49.338Z,6.47
2023-05-09T04:32:53.402Z,6.63
2023-05-09T04:42:58.988Z,5.50
2023-05-09T04:48:03.213Z,3.70
2023-05-09T04:53:06.054Z,4.65
2023-05-09T04:58:10.284Z,6.30
2023-05-09T05:03:14.197Z,6.30
2023-05-09T05:08:17.287Z,5.95
2023-05-09T05:13:21.431Z,6.55
2023-05-09T05:18:25.533Z,4.20
2023-05-09T05:23:28.151Z,5.93
2023-05-09T05:28:30.734Z,5.00
2023-05-09T05:33:34.573Z,6.03
2023-05-09T05:38:37.142Z,6.10
2023-05-09T05:43:39.685Z,6.55
2023-05-09T05:48:44.156Z,5.50
2023-05-09T05:53:47.249Z,5.95
2023-05-09T05:58:52.608Z,4.50
2023-05-09T06:03:56.558Z,5.38
2023-05-09T06:14:01.513Z,5.50
2023-05-09T06:19:05.514Z,6.03
2023-05-09T06:24:14.393Z,4.90
2023-05-09T06:29:26.310Z,4.80
2023-05-09T06:34:30.322Z,6.30
2023-05-09T06:39:33.227Z,6.30
2023-05-09T06:44:35.813Z,6.37
2023-05-09T06:49:39.664Z,5.93
2023-05-09T06:54:42.281Z,6.22
2023-05-09T06:59:45.943Z,6.35
2023-05-09T07:09:57.894Z,6.85
2023-05-09T07:15:07.766Z,5.95
2023-05-09T07:20:10.761Z,6.03
2023-05-09T07:25:14.937Z,6.32
2023-05-09T07:30:18.120Z,6.00
2023-05-09T07:35:21.631Z,7.30
2023-05-09T07:40:26.049Z,6.25
2023-05-09T07:45:29.143Z,6.60
2023-05-09T07:50:32.229Z,6.15
2023-05-09T07:55:36.752Z,7.07
2023-05-09T08:00:39.585Z,10.70
2023-05-09T08:05:42.663Z,7.35
2023-05-09T08:10:46.975Z,7.30
2023-05-09T08:15:50.028Z,8.02
2023-05-09T08:20:52.847Z,7.55
2023-05-09T08:25:57.349Z,7.85
2023-05-09T08:30:59.952Z,7.32
2023-05-09T08:36:03.130Z,8.30
2023-05-09T08:41:07.462Z,8.68
2023-05-09T08:46:11.062Z,7.93
2023-05-09T08:51:13.903Z,7.30
2023-05-09T08:56:18.025Z,8.20
2023-05-09T09:01:21.531Z,7.35
2023-05-09T09:06:25.737Z,7.40
2023-05-09T09:11:29.806Z,7.93
2023-05-09T09:16:32.739Z,8.27
2023-05-09T09:21:35.521Z,7.75
2023-05-09T09:26:46.543Z,8.32
2023-05-09T09:31:53.067Z,8.73
2023-05-09T09:36:55.667Z,8.57
2023-05-09T09:42:10.418Z,8.27
2023-05-09T09:47:12.920Z,10.02
2023-05-09T09:52:23.455Z,8.10
2023-05-09T09:57:37.056Z,9.68
2023-05-09T10:02:48.048Z,9.23
2023-05-09T10:07:51.810Z,8.00
2023-05-09T10:12:57.069Z,8.82
2023-05-09T10:18:00.859Z,9.80
2023-05-09T10:23:04.327Z,8.45
2023-05-09T10:28:11.399Z,8.13
2023-05-09T10:33:15.347Z,8.38
2023-05-09T10:38:18.130Z,8.27
2023-05-09T10:43:24.019Z,7.80
2023-05-09T10:48:26.892Z,10.57
2023-05-09T10:53:41.945Z,8.68
2023-05-09T10:58:48.759Z,8.18
2023-05-09T11:03:56.007Z,8.80
2023-05-09T11:08:59.209Z,9.18
2023-05-09T11:14:03.904Z,9.88
2023-05-09T11:19:06.690Z,10.30
2023-05-09T11:24:17.153Z,9.55
2023-05-09T11:29:21.167Z,9.48
2023-05-09T11:34:23.736Z,9.75
2023-05-09T11:39:26.839Z,10.63
2023-05-09T11:44:33.590Z,11.02
2023-05-09T11:49:37.356Z,10.35
2023-05-09T11:54:40.126Z,10.95
2023-05-09T11:59:44.610Z,11.02
2023-05-09T12:04:47.116Z,9.82
2023-05-09T12:09:50.426Z,8.95
2023-05-09T12:14:56.031Z,11.90
2023-05-09T12:19:59.819Z,11.07
2023-05-09T12:25:04.235Z,10.13
2023-05-09T12:30:13.198Z,11.18
2023-05-09T12:35:16.448Z,9.55
2023-05-09T12:40:19.135Z,9.93
2023-05-09T12:45:23.311Z,10.63
2023-05-09T12:50:32.292Z,10.93
2023-05-09T12:55:40.446Z,10.93
2023-05-09T13:00:45.178Z,11.02
2023-05-09T13:05:55.137Z,10.20
2023-05-09T13:11:11.984Z,9.25
2023-05-09T13:16:19.950Z,10.30
2023-05-09T13:21:23.103Z,8.02
2023-05-09T13:26:27.377Z,8.85
2023-05-09T13:31:31.474Z,8.82
2023-05-09T13:36:33.999Z,9.27
2023-05-09T13:41:38.116Z,10.02
2023-05-09T13:46:42.624Z,8.60
2023-05-09T13:51:45.353Z,7.88
2023-05-09T13:56:48.397Z,9.30
2023-05-09T14:01:52.347Z,7.80
2023-05-09T14:06:55.295Z,7.55
2023-05-09T14:11:57.896Z,7.80
2023-05-09T14:17:02.477Z,8.40
2023-05-09T14:22:05.567Z,7.38
2023-05-09T14:27:08.355Z,7.70
2023-05-09T14:32:14.993Z,7.28
2023-05-09T14:37:18.030Z,8.20
2023-05-09T14:42:20.978Z,7.28
2023-05-09T14:47:25.358Z,7.38
2023-05-09T14:52:29.145Z,6.97
2023-05-09T14:57:32.633Z,5.90
2023-05-09T15:02:36.982Z,6.05
2023-05-09T15:07:39.830Z,5.90
2023-05-09T15:12:43.012Z,5.80
2023-05-09T15:17:47.646Z,6.47
2023-05-09T15:22:51.065Z,5.65
2023-05-09T15:27:54.115Z,5.10
2023-05-09T15:32:59.606Z,4.95
2023-05-09T15:38:02.886Z,5.32
2023-05-09T15:43:08.137Z,5.18
2023-05-09T15:48:12.704Z,5.57
2023-05-09T15:53:16.504Z,5.47
2023-05-09T15:58:19.528Z,5.15
2023-05-09T16:03:24.903Z,5.32
2023-05-09T16:08:28.335Z,5.30
2023-05-09T16:13:31.974Z,4.95
2023-05-09T16:18:37.491Z,5.07
2023-05-09T16:23:40.879Z,4.93
2023-05-09T16:28:43.892Z,4.90
2023-05-09T16:33:47.863Z,4.80
2023-05-09T16:38:50.830Z,4.88
2023-05-09T16:43:53.759Z,5.07
2023-05-09T16:48:57.730Z,4.05
2023-05-09T16:54:00.341Z,4.32
2023-05-09T16:59:03.894Z,4.15
2023-05-09T17:04:08.384Z,4.18
2023-05-09T17:09:11.393Z,4.13
2023-05-09T17:14:14.284Z,4.78
2023-05-09T17:19:18.990Z,4.50
2023-05-09T17:24:21.739Z,4.10
2023-05-09T17:29:24.561Z,4.45
2023-05-09T17:34:29.380Z,4.72
2023-05-09T17:39:32.194Z,4.22
2023-05-09T17:44:35.043Z,5.20
2023-05-09T17:49:38.994Z,5.60
2023-05-09T17:54:42.159Z,5.20
2023-05-09T17:59:45.714Z,4.75
2023-05-09T18:04:51.396Z,4.35
2023-05-09T18:09:54.036Z,4.85
2023-05-09T18:14:56.542Z,4.67
2023-05-09T18:20:00.743Z,4.53
2023-05-09T18:25:03.519Z,4.43
2023-05-09T18:30:06.767Z,4.13
2023-05-09T18:35:11.008Z,4.60
2023-05-09T18:40:15.811Z,4.35
2023-05-09T18:45:18.756Z,3.88
2023-05-09T18:50:23.303Z,4.33
2023-05-09T18:55:26.129Z,4.13
2023-05-09T19:00:29.453Z,4.00
2023-05-09T19:05:33.521Z,4.15
2023-05-09T19:10:36.118Z,4.05
2023-05-09T19:15:38.672Z,4.40
2023-05-09T19:20:43.071Z,4.25
2023-05-09T19:25:46.602Z,5.38
2023-05-09T19:35:52.902Z,4.28
2023-05-09T19:40:55.631Z,4.03
2023-05-09T19:45:59.865Z,4.47
2023-05-09T19:51:04.029Z,4.60
2023-05-09T19:56:07.908Z,5.45
2023-05-09T20:01:10.799Z,4.20
2023-05-09T20:06:14.681Z,5.07
2023-05-09T20:11:18.228Z,4.22
2023-05-09T20:16:21.481Z,4.50
2023-05-09T20:21:27.057Z,4.10
2023-05-09T20:26:29.727Z,4.93
2023-05-09T20:31:32.717Z,4.82
2023-05-09T20:36:36.655Z,4.43
2023-05-09T20:41:39.123Z,5.07
2023-05-09T20:46:41.663Z,4.28
2023-05-09T20:51:48.396Z,5.00
2023-05-09T20:56:51.001Z,3.92
2023-05-09T21:01:55.488Z,4.68
2023-05-09T21:07:00.451Z,4.22
2023-05-09T21:12:04.364Z,4.18
2023-05-09T21:17:06.935Z,4.15
2023-05-09T21:22:11.078Z,3.83
2023-05-09T21:27:14.084Z,4.07
2023-05-09T21:32:16.938Z,3.47
2023-05-09T21:37:20.924Z,2.30
2023-05-09T21:42:26.096Z,2.00
2023-05-09T21:47:29.054Z,1.70
2023-05-09T21:52:33.421Z,1.60
2023-05-09T21:57:36.003Z,1.30
2023-05-09T22:02:38.955Z,1.02
2023-05-09T22:07:43.333Z,1.53
2023-05-09T22:12:46.319Z,1.08
2023-05-09T22:17:48.936Z,0.87
2023-05-09T22:22:52.976Z,0.60
2023-05-09T22:27:55.543Z,0.70
2023-05-09T22:32:58.646Z,0.50
2023-05-09T22:38:03.673Z,0.60
2023-05-09T22:43:06.719Z,0.80
2023-05-09T22:48:09.674Z,0.80
2023-05-09T22:53:13.918Z,0.77
2023-05-09T22:58:16.874Z,0.88
2023-05-09T23:03:19.902Z,0.53
2023-05-09T23:08:23.873Z,0.40
2023-05-09T23:13:26.945Z,0.80
2023-05-09T23:18:29.862Z,0.85
2023-05-09T23:23:34.139Z,1.07
2023-05-09T23:28:36.922Z,1.10
2023-05-09T23:33:39.489Z,1.00
2023-05-09T23:38:43.941Z,0.40
2023-05-09T23:43:47.000Z,0.63
2023-05-09T23:48:49.723Z,0.83
2023-05-09T23:53:53.624Z,0.95
